createdAt,value
2019-03-31T00:00:37.259Z,16.00
2019-03-31T00:03:05.578Z,16.00
2019-03-31T00:05:37.100Z,15.90
2019-03-31T00:08:03.990Z,15.90
2019-03-31T00:10:32.151Z,15.90
2019-03-31T00:13:00.277Z,15.80
2019-03-31T00:15:28.396Z,15.60
2019-03-31T00:17:56.439Z,15.50
2019-03-31T00:20:24.756Z,15.50
2019-03-31T00:22:53.075Z,15.50
2019-03-31T00:25:21.229Z,15.40
2019-03-31T00:27:49.391Z,15.40
2019-03-31T00:30:17.471Z,15.40
2019-03-31T00:32:45.728Z,15.40
2019-03-31T00:35:13.858Z,15.40
2019-03-31T00:37:42.119Z,15.40
2019-03-31T00:40:11.975Z,15.40
2019-03-31T00:42:40.245Z,15.40
2019-03-31T00:45:08.575Z,15.30
2019-03-31T00:47:36.978Z,15.30
2019-03-31T00:50:05.762Z,15.40
2019-03-31T00:52:33.853Z,15.40
2019-03-31T00:55:03.793Z,15.30
2019-03-31T00:57:31.745Z,15.20
2019-03-31T00:59:59.843Z,15.30
2019-03-31T01:02:31.129Z,15.00
2019-03-31T01:04:59.872Z,15.00
2019-03-31T01:07:28.066Z,14.90
2019-03-31T01:09:56.985Z,15.00
2019-03-31T01:12:26.400Z,14.90
2019-03-31T01:14:54.963Z,14.80
2019-03-31T01:17:23.312Z,14.90
2019-03-31T01:19:52.499Z,14.80
2019-03-31T01:22:20.664Z,14.80
2019-03-31T01:24:48.842Z,14.80
2019-03-31T01:27:16.880Z,14.60
2019-03-31T01:29:44.945Z,14.50
2019-03-31T01:32:13.161Z,14.60
2019-03-31T01:34:46.710Z,14.50
2019-03-31T01:37:15.708Z,14.50
2019-03-31T01:39:45.183Z,14.20
2019-03-31T01:42:13.308Z,14.10
2019-03-31T01:44:41.336Z,14.10
2019-03-31T01:47:09.892Z,14.00
2019-03-31T01:49:38.014Z,14.10
2019-03-31T01:52:06.159Z,14.00
2019-03-31T01:54:37.111Z,13.80
2019-03-31T01:57:05.251Z,13.50
2019-03-31T01:59:34.658Z,13.60
2019-03-31T02:02:04.367Z,13.70
2019-03-31T02:04:32.919Z,13.90
2019-03-31T02:07:00.944Z,14.00
2019-03-31T02:09:29.056Z,14.10
2019-03-31T02:11:57.158Z,14.20
2019-03-31T02:14:26.338Z,14.30
2019-03-31T02:16:54.489Z,14.30
2019-03-31T02:21:50.180Z,14.20
2019-03-31T02:24:18.344Z,14.30
2019-03-31T02:26:46.642Z,14.30
2019-03-31T02:29:14.767Z,14.20
2019-03-31T02:31:43.980Z,14.20
2019-03-31T02:34:12.153Z,14.20
2019-03-31T02:36:40.257Z,14.10
2019-03-31T02:39:08.505Z,14.20
2019-03-31T02:41:36.718Z,14.20
2019-03-31T02:44:04.798Z,14.10
2019-03-31T02:46:32.893Z,14.10
2019-03-31T02:49:02.113Z,13.90
2019-03-31T02:51:30.491Z,13.80
2019-03-31T02:53:58.640Z,13.60
2019-03-31T02:56:28.217Z,13.60
2019-03-31T02:58:57.632Z,13.50
2019-03-31T03:01:26.519Z,13.60
2019-03-31T03:03:56.668Z,13.60
2019-03-31T03:06:27.149Z,13.50
2019-03-31T03:08:55.851Z,13.50
2019-03-31T03:11:25.402Z,13.30
2019-03-31T03:13:55.376Z,13.30
2019-03-31T03:16:23.557Z,13.10
2019-03-31T03:18:52.820Z,12.90
2019-03-31T03:21:24.093Z,13.00
2019-03-31T03:23:51.472Z,13.00
2019-03-31T03:26:19.605Z,13.10
2019-03-31T03:28:47.686Z,12.90
2019-03-31T03:31:17.279Z,12.90
2019-03-31T03:33:46.822Z,12.90
2019-03-31T03:36:15.071Z,13.00
2019-03-31T03:38:43.369Z,13.10
2019-03-31T03:41:11.503Z,13.20
2019-03-31T03:43:54.190Z,13.30
2019-03-31T03:46:10.858Z,13.10
2019-03-31T03:48:40.217Z,13.20
2019-03-31T03:51:09.419Z,13.20
2019-03-31T03:53:37.612Z,13.20
2019-03-31T03:56:05.984Z,12.90
2019-03-31T03:58:34.232Z,13.00
2019-03-31T04:01:04.166Z,12.90
2019-03-31T04:03:51.520Z,12.90
2019-03-31T04:06:19.731Z,12.80
2019-03-31T04:08:47.985Z,12.90
2019-03-31T04:11:27.209Z,12.70
2019-03-31T04:13:55.419Z,12.80
2019-03-31T04:16:23.494Z,12.80
2019-03-31T04:18:51.893Z,12.70
2019-03-31T04:21:19.977Z,12.80
2019-03-31T04:23:48.171Z,12.80
2019-03-31T04:26:16.352Z,12.80
2019-03-31T04:28:44.484Z,12.70
2019-03-31T04:31:14.227Z,12.70
2019-03-31T04:33:51.358Z,12.60
2019-03-31T04:36:12.531Z,12.60
2019-03-31T04:38:42.409Z,12.60
2019-03-31T04:41:10.641Z,12.70
2019-03-31T04:43:38.770Z,12.70
2019-03-31T04:46:06.982Z,12.80
2019-03-31T04:48:35.148Z,12.70
2019-03-31T04:51:03.345Z,12.60
2019-03-31T04:53:31.269Z,12.70
2019-03-31T04:55:59.400Z,12.80
2019-03-31T04:58:27.516Z,12.90
2019-03-31T05:00:55.673Z,12.90
2019-03-31T05:03:23.801Z,12.90
2019-03-31T05:05:51.913Z,12.90
2019-03-31T05:08:20.099Z,12.90
2019-03-31T05:10:48.414Z,13.00
2019-03-31T05:13:16.642Z,13.00
2019-03-31T05:15:45.683Z,13.00
2019-03-31T05:18:13.873Z,13.00
2019-03-31T05:20:43.193Z,13.00
2019-03-31T05:23:12.378Z,13.10
2019-03-31T05:25:40.542Z,13.10
2019-03-31T05:28:08.849Z,13.20
2019-03-31T05:30:37.215Z,13.30
2019-03-31T05:33:07.623Z,13.30
2019-03-31T05:35:37.074Z,13.30
2019-03-31T05:38:07.777Z,13.30
2019-03-31T05:40:36.702Z,13.20
2019-03-31T05:43:04.822Z,13.30
2019-03-31T05:45:32.942Z,13.30
2019-03-31T05:48:01.002Z,13.20
2019-03-31T05:50:29.112Z,13.10
2019-03-31T05:52:57.369Z,13.20
2019-03-31T05:55:37.759Z,12.90
2019-03-31T05:58:05.892Z,13.00
2019-03-31T06:00:40.819Z,13.00
2019-03-31T06:03:08.948Z,13.10
2019-03-31T06:05:38.639Z,13.20
2019-03-31T06:08:06.795Z,13.20
2019-03-31T06:10:34.912Z,13.10
2019-03-31T06:13:03.138Z,13.10
2019-03-31T06:15:31.224Z,13.20
2019-03-31T06:18:01.171Z,13.30
2019-03-31T06:20:29.383Z,13.30
2019-03-31T06:22:57.508Z,13.20
2019-03-31T06:25:25.545Z,13.30
2019-03-31T06:27:55.867Z,13.40
2019-03-31T06:30:23.866Z,13.50
2019-03-31T06:32:55.237Z,13.50
2019-03-31T06:35:22.011Z,13.50
2019-03-31T06:37:50.379Z,13.60
2019-03-31T06:40:18.649Z,13.70
2019-03-31T06:42:46.954Z,13.70
2019-03-31T06:45:15.062Z,13.80
2019-03-31T06:47:43.395Z,13.80
2019-03-31T06:50:11.809Z,13.90
2019-03-31T06:52:39.923Z,13.90
2019-03-31T06:55:08.612Z,14.00
2019-03-31T06:57:36.855Z,14.00
2019-03-31T07:00:05.712Z,14.10
2019-03-31T07:02:33.849Z,14.10
2019-03-31T07:05:02.130Z,14.10
2019-03-31T07:07:30.477Z,14.10
2019-03-31T07:09:58.591Z,14.10
2019-03-31T07:12:26.767Z,14.10
2019-03-31T07:14:55.137Z,14.00
2019-03-31T07:17:23.293Z,14.00
2019-03-31T07:19:51.525Z,13.90
2019-03-31T07:22:19.695Z,14.00
2019-03-31T07:24:47.983Z,14.10
2019-03-31T07:27:16.123Z,14.10
2019-03-31T07:29:44.279Z,14.20
2019-03-31T07:32:12.556Z,14.20
2019-03-31T07:34:40.767Z,14.30
2019-03-31T07:37:09.058Z,14.30
2019-03-31T07:39:37.528Z,14.40
2019-03-31T07:42:05.954Z,14.40
2019-03-31T07:44:34.119Z,14.50
2019-03-31T07:47:02.138Z,14.50
2019-03-31T07:49:30.414Z,14.50
2019-03-31T07:51:58.575Z,14.40
2019-03-31T07:54:26.733Z,14.50
2019-03-31T07:56:55.103Z,14.50
2019-03-31T07:59:23.364Z,14.50
2019-03-31T08:01:51.681Z,14.60
2019-03-31T08:04:19.921Z,14.60
2019-03-31T08:06:48.139Z,14.60
2019-03-31T08:09:16.371Z,14.60
2019-03-31T08:11:44.540Z,14.60
2019-03-31T08:14:12.811Z,14.60
2019-03-31T08:16:40.970Z,14.60
2019-03-31T08:19:09.266Z,14.60
2019-03-31T08:21:37.488Z,14.70
2019-03-31T08:24:06.747Z,14.30
2019-03-31T08:26:35.362Z,14.30
2019-03-31T08:29:03.452Z,14.50
2019-03-31T08:31:31.632Z,14.60
2019-03-31T08:33:59.667Z,14.70
2019-03-31T08:36:30.804Z,14.70
2019-03-31T08:38:59.020Z,14.80
2019-03-31T08:41:27.246Z,14.90
2019-03-31T08:43:55.501Z,14.80
2019-03-31T08:46:23.653Z,15.00
2019-03-31T08:48:52.904Z,15.00
2019-03-31T08:51:21.119Z,15.10
2019-03-31T08:53:49.266Z,15.10
2019-03-31T08:56:17.325Z,15.10
2019-03-31T08:58:45.431Z,15.10
2019-03-31T09:01:15.838Z,15.00
2019-03-31T09:03:45.176Z,15.00
2019-03-31T09:06:13.398Z,15.00
2019-03-31T09:08:43.325Z,15.00
2019-03-31T09:11:11.468Z,14.80
2019-03-31T09:13:39.540Z,14.80
2019-03-31T09:16:07.642Z,14.80
2019-03-31T09:18:35.964Z,14.80
2019-03-31T09:21:04.092Z,14.70
2019-03-31T09:23:34.234Z,14.70
2019-03-31T09:26:02.307Z,14.60
2019-03-31T09:28:30.529Z,14.60
2019-03-31T09:30:58.594Z,14.60
2019-03-31T09:33:26.741Z,14.60
2019-03-31T09:35:54.892Z,14.60
2019-03-31T09:38:23.156Z,14.50
2019-03-31T09:40:51.244Z,14.50
2019-03-31T09:43:19.291Z,14.50
2019-03-31T09:45:47.435Z,14.60
2019-03-31T09:48:15.630Z,14.60
2019-03-31T09:50:43.715Z,14.60
2019-03-31T09:53:12.006Z,14.60
2019-03-31T09:55:41.281Z,14.70
2019-03-31T09:58:09.427Z,14.70
2019-03-31T10:00:43.861Z,14.70
2019-03-31T10:03:11.944Z,14.70
2019-03-31T10:05:40.209Z,14.80
2019-03-31T10:08:08.304Z,14.70
2019-03-31T10:10:36.457Z,14.70
2019-03-31T10:13:06.425Z,14.80
2019-03-31T10:15:36.352Z,14.90
2019-03-31T10:18:04.625Z,14.90
2019-03-31T10:20:34.176Z,14.80
2019-03-31T10:23:02.379Z,14.60
2019-03-31T10:25:30.653Z,14.60
2019-03-31T10:27:59.335Z,14.50
2019-03-31T10:30:31.528Z,14.60
2019-03-31T10:32:59.691Z,14.60
2019-03-31T10:35:27.883Z,14.70
2019-03-31T10:37:57.133Z,14.80
2019-03-31T10:40:25.194Z,14.90
2019-03-31T10:42:53.430Z,15.00
2019-03-31T10:45:21.597Z,15.20
2019-03-31T10:47:49.673Z,15.20
2019-03-31T10:50:17.743Z,15.20
2019-03-31T10:52:47.007Z,15.10
2019-03-31T10:55:15.351Z,15.00
2019-03-31T10:57:43.499Z,15.00
2019-03-31T11:00:13.705Z,15.00
2019-03-31T11:02:41.891Z,15.00
2019-03-31T11:05:10.323Z,15.10
2019-03-31T11:07:38.514Z,15.20
2019-03-31T11:10:07.569Z,15.20
2019-03-31T11:12:35.776Z,15.30
2019-03-31T11:15:04.282Z,15.30
2019-03-31T11:17:32.409Z,15.40
2019-03-31T11:20:01.023Z,15.40
2019-03-31T11:22:33.942Z,15.50
2019-03-31T11:25:02.148Z,15.50
2019-03-31T11:27:30.304Z,15.50
2019-03-31T11:29:58.490Z,15.60
2019-03-31T11:32:26.659Z,15.60
2019-03-31T11:34:57.758Z,15.60
2019-03-31T11:37:25.905Z,15.80
2019-03-31T11:39:53.956Z,15.80
2019-03-31T11:42:22.223Z,16.00
2019-03-31T11:44:50.306Z,16.10
2019-03-31T11:47:18.564Z,16.00
2019-03-31T11:49:46.651Z,16.20
2019-03-31T11:52:14.835Z,16.30
2019-03-31T11:54:45.815Z,16.30
2019-03-31T11:57:13.108Z,16.30
2019-03-31T11:59:41.367Z,16.40
2019-03-31T12:02:09.457Z,16.30
2019-03-31T12:04:37.630Z,16.40
2019-03-31T12:07:06.041Z,16.40
2019-03-31T12:09:34.212Z,16.50
2019-03-31T12:12:15.764Z,16.50
2019-03-31T12:14:44.214Z,16.40
2019-03-31T12:17:12.486Z,16.40
2019-03-31T12:19:40.682Z,16.40
2019-03-31T12:22:08.832Z,16.40
2019-03-31T12:24:36.988Z,16.30
2019-03-31T12:27:05.294Z,16.30
2019-03-31T12:29:33.526Z,16.20
2019-03-31T12:32:01.780Z,16.20
2019-03-31T12:34:29.953Z,16.20
2019-03-31T12:36:58.196Z,16.30
2019-03-31T12:39:32.277Z,16.30
2019-03-31T12:42:00.677Z,16.30
2019-03-31T12:44:29.912Z,16.30
2019-03-31T12:46:58.109Z,16.40
2019-03-31T12:49:26.620Z,16.40
2019-03-31T12:51:55.345Z,16.30
2019-03-31T12:54:24.764Z,16.20
2019-03-31T12:56:52.951Z,16.10
2019-03-31T12:59:21.182Z,15.30
2019-03-31T13:01:49.324Z,15.10
2019-03-31T13:04:17.510Z,15.40
2019-03-31T13:06:45.705Z,15.50
2019-03-31T13:09:13.894Z,15.70
2019-03-31T13:11:42.167Z,15.60
2019-03-31T13:14:10.291Z,15.60
2019-03-31T13:16:38.479Z,15.50
2019-03-31T13:19:06.613Z,15.70
2019-03-31T13:21:34.739Z,15.80
2019-03-31T13:24:03.008Z,15.80
2019-03-31T13:26:34.620Z,15.90
2019-03-31T13:29:04.529Z,16.00
2019-03-31T13:31:32.669Z,16.00
2019-03-31T13:34:01.921Z,16.00
2019-03-31T13:36:30.049Z,16.10
2019-03-31T13:38:58.287Z,16.10
2019-03-31T13:41:26.618Z,16.30
2019-03-31T13:43:54.896Z,16.30
2019-03-31T13:46:23.020Z,16.40
2019-03-31T13:48:51.217Z,16.40
2019-03-31T13:51:21.301Z,16.50
2019-03-31T13:53:49.317Z,16.60
2019-03-31T13:56:19.684Z,16.60
2019-03-31T13:58:52.588Z,16.50
2019-03-31T14:01:31.441Z,16.70
2019-03-31T14:04:03.674Z,16.70
2019-03-31T14:06:32.626Z,16.70
2019-03-31T14:09:00.739Z,16.80
2019-03-31T14:11:28.934Z,16.80
2019-03-31T14:13:57.168Z,16.80
2019-03-31T14:16:29.037Z,16.80
2019-03-31T14:18:56.864Z,17.00
2019-03-31T14:21:26.996Z,17.00
2019-03-31T14:23:55.325Z,17.00
2019-03-31T14:26:25.305Z,17.00
2019-03-31T14:28:53.658Z,16.90
2019-03-31T14:31:23.453Z,16.90
2019-03-31T14:33:52.749Z,16.90
2019-03-31T14:36:21.012Z,16.90
2019-03-31T14:38:49.182Z,16.90
2019-03-31T14:41:17.433Z,16.90
2019-03-31T14:43:45.649Z,16.90
2019-03-31T14:46:13.825Z,17.10
2019-03-31T14:48:41.851Z,17.30
2019-03-31T14:51:10.002Z,17.40
2019-03-31T14:53:38.161Z,17.50
2019-03-31T14:56:06.385Z,17.40
2019-03-31T14:58:34.590Z,17.60
2019-03-31T15:01:02.936Z,17.70
2019-03-31T15:03:31.076Z,17.80
2019-03-31T15:05:59.069Z,17.80
2019-03-31T15:08:27.261Z,17.80
2019-03-31T15:10:55.421Z,17.80
2019-03-31T15:13:23.544Z,18.10
2019-03-31T15:15:51.579Z,18.20
2019-03-31T15:18:19.770Z,18.20
2019-03-31T15:20:47.966Z,18.10
2019-03-31T15:23:16.333Z,17.60
2019-03-31T15:25:44.549Z,17.70
2019-03-31T15:28:14.689Z,17.80
2019-03-31T15:30:55.167Z,18.00
2019-03-31T15:33:23.534Z,18.00
2019-03-31T15:35:51.756Z,18.20
2019-03-31T15:38:21.799Z,18.20
2019-03-31T15:40:50.286Z,18.30
2019-03-31T15:43:18.537Z,18.30
2019-03-31T15:45:46.719Z,18.20
2019-03-31T15:48:14.961Z,18.20
2019-03-31T15:50:43.231Z,18.20
2019-03-31T15:53:11.542Z,18.10
2019-03-31T17:00:28.919Z,17.90
2019-03-31T17:02:56.616Z,17.70
